Accueil
METAR-TAF:

METAR-TAF

Aéroports :

Aérodrome de Sanikiluaq

Sanikiluaq, Nunavut, Canada

latitude: 56-32N, longitude: 079-15W, altitude: 32 m

Observation

Le bulletin a été fait il y a 11 heures et 4 minutes, à 17:00 UTC
Vent 21 kt de nord avec des rafales jusqu'à 27 kt
Température -4°C
Humidité 63%
Pression 1018 hPa
Visibilité: 12.9 km
Nuages épars à une hauteur de 2000 ft
Chasse-neige basse

METAR: CYSK 111700Z 35021G27KT 8SM DRSN SCT020 M04/M10 A3007 RMK SC4 SN CVR/TRACE LOOSE LAST OBS/NEXT 121300UTC SLP188

Heure: 23:04 (04:04 UTC)


TAF: absent

Observations et prévisions météorologiques de plus de 4000 aéroports (messages METAR et TAF).

Les stations disponibles sont représentées par des disques jaunes et rouges sur la carte.

Passer la souris dessus pour voir le nom de la station.

Cliquer dessus pour voir les observations et prévisions météorologiques.

Pour changer de carte: cliquez sur les boutons verts avec une croix noire pour zoomer, sur le bouton vert avec un tiret pour effectuer un zoom arrière, ou sur les flèches vertes pour les cartes adjacentes.


METAR-TAF: